Terminal Aerodrome Forecast
Issued by NWS

Home | Current Version | Previous Version | Text Only | Print | Product List | Glossary On
Versions: 1 2 3 4 5 6 7 8 9 10 11 12 13 14 15 16 17 18 19 20 21 22 23 24
000
FTUS43 KGRR 110218 AAB
TAFAZO
TAF AMD
KAZO 110218Z 1102/1124 22006KT P6SM -SN OVC040
     FM110300 20005KT 2SM -SN BR OVC012
     FM110500 18007KT 1SM -SN BR OVC012
     FM111200 16011KT 3/4SM -SN BR OVC009
     FM111500 17011KT 1/2SM SN FG OVC005=

USA.gov is the U.S. government's official web portal to all federal, state and local government web resources and services.